Time;durP1;ratioP1;P1;durP2;ratioP2;P2;SDS_P1;SDS_P2;PMS_P1;PMS_P2;Temp;Humidity;BMP_temperature;BMP_pressure;BME280_temperature;BME280_humidity;BME280_pressure;Samples;Min_cycle;Max_cycle;Signal;HPM_P1;HPM_P2
2022/04/22 00:00:23;;;;;;;17.85;8.05;;;11.60;91.30;;;;;;5012614;28;20072;-43
2022/04/22 00:02:51;;;;;;;15.30;7.88;;;11.60;91.50;;;;;;5008795;28;20073;-43
2022/04/22 00:05:18;;;;;;;15.60;8.40;;;11.60;91.50;;;;;;5003674;28;20533;-43
2022/04/22 00:07:44;;;;;;;17.30;7.65;;;11.50;91.70;;;;;;5006974;28;20045;-43
2022/04/22 00:10:11;;;;;;;17.35;8.60;;;11.50;91.70;;;;;;5010864;28;20041;-44
2022/04/22 00:12:38;;;;;;;14.95;8.65;;;11.50;91.80;;;;;;5009335;28;20363;-43
2022/04/22 00:15:05;;;;;;;13.02;7.57;;;11.40;92.10;;;;;;5010790;28;20048;-44
2022/04/22 00:17:32;;;;;;;16.67;8.80;;;11.40;92.40;;;;;;5009352;28;20050;-44
2022/04/22 00:20:00;;;;;;;16.33;8.30;;;11.40;92.60;;;;;;5010495;28;20056;-44
2022/04/22 00:22:27;;;;;;;11.63;8.02;;;11.30;92.80;;;;;;5002770;28;20050;-44
2022/04/22 00:24:54;;;;;;;17.77;8.45;;;11.30;92.70;;;;;;5011785;28;20038;-43
2022/04/22 00:27:21;;;;;;;16.80;7.85;;;11.30;92.80;;;;;;5008763;28;20038;-44
2022/04/22 00:29:48;;;;;;;17.48;8.57;;;11.30;92.70;;;;;;4999307;28;20053;-43
2022/04/22 00:32:14;;;;;;;18.20;8.05;;;11.30;93.20;;;;;;5002771;28;20054;-43
2022/04/22 00:34:41;;;;;;;19.48;8.75;;;11.20;93.10;;;;;;5001728;28;20056;-43
2022/04/22 00:37:09;;;;;;;17.10;8.35;;;11.20;93.40;;;;;;4998790;28;20135;-43
2022/04/22 00:39:36;;;;;;;17.50;7.90;;;11.20;93.30;;;;;;5012374;28;20046;-43
2022/04/22 00:42:08;;;;;;;14.65;7.57;;;11.20;93.50;;;;;;5007840;28;20389;-43
2022/04/22 00:44:35;;;;;;;16.88;8.32;;;11.20;93.50;;;;;;5008487;28;20053;-43
2022/04/22 00:47:01;;;;;;;21.80;8.40;;;11.10;93.40;;;;;;5002474;28;20138;-43
2022/04/22 00:49:28;;;;;;;17.98;8.93;;;11.20;93.70;;;;;;5015616;28;20413;-43
2022/04/22 00:51:55;;;;;;;14.65;8.15;;;11.10;93.80;;;;;;5014494;28;20121;-43
2022/04/22 00:54:23;;;;;;;17.90;9.52;;;11.00;93.90;;;;;;5011587;28;20045;-42
2022/04/22 00:56:50;;;;;;;15.68;9.23;;;11.00;94.40;;;;;;5012993;28;20478;-43
2022/04/22 00:59:17;;;;;;;19.50;8.85;;;11.00;94.60;;;;;;5009256;28;20521;-42
2022/04/22 01:01:44;;;;;;;21.13;9.40;;;10.90;94.50;;;;;;5009934;28;20046;-43
2022/04/22 01:09:49;;;;;;;19.27;9.93;;;10.80;95.20;;;;;;4984873;28;20046;-43
2022/04/22 01:12:16;;;;;;;27.48;10.05;;;10.80;95.00;;;;;;5007606;28;20046;-43
2022/04/22 01:14:42;;;;;;;19.13;9.95;;;10.80;95.30;;;;;;5007188;28;20045;-44
2022/04/22 01:17:09;;;;;;;18.95;10.40;;;10.80;95.20;;;;;;5009566;28;20045;-43
2022/04/22 01:19:36;;;;;;;21.15;10.23;;;10.70;95.40;;;;;;5013117;28;20056;-44
2022/04/22 01:22:05;;;;;;;23.33;10.23;;;10.70;95.40;;;;;;5008939;28;20074;-44
2022/04/22 01:24:31;;;;;;;22.65;11.63;;;10.70;95.50;;;;;;5014125;28;20092;-44
2022/04/22 01:26:58;;;;;;;21.70;11.02;;;10.60;95.60;;;;;;5011637;28;20398;-43
2022/04/22 01:29:25;;;;;;;20.38;11.75;;;10.60;95.80;;;;;;5011324;28;20045;-43
2022/04/22 01:31:52;;;;;;;22.83;11.48;;;10.50;95.90;;;;;;5011448;28;20046;-43
2022/04/22 01:34:18;;;;;;;22.40;11.10;;;10.50;96.00;;;;;;5010037;28;20060;-44
2022/04/22 01:36:46;;;;;;;20.17;10.93;;;10.50;96.10;;;;;;5013524;28;20060;-45
2022/04/22 01:39:14;;;;;;;19.30;11.02;;;10.40;96.30;;;;;;5007685;28;20402;-45
2022/04/22 01:41:41;;;;;;;23.48;12.63;;;10.40;96.50;;;;;;5010643;28;20052;-45
2022/04/22 01:44:08;;;;;;;19.42;11.70;;;10.40;96.50;;;;;;5010450;28;20580;-44
2022/04/22 01:46:35;;;;;;;27.15;12.32;;;10.30;96.70;;;;;;5009729;28;20038;-45
2022/04/22 01:49:02;;;;;;;24.42;11.88;;;10.20;96.90;;;;;;5012194;28;20046;-45
2022/04/22 01:51:29;;;;;;;28.80;12.20;;;10.20;97.00;;;;;;5011236;28;20054;-44
2022/04/22 01:53:55;;;;;;;24.70;12.00;;;10.20;97.20;;;;;;5006551;28;20046;-45
2022/04/22 01:56:23;;;;;;;20.90;11.43;;;10.10;97.30;;;;;;5008075;28;20377;-44
2022/04/22 01:58:50;;;;;;;25.35;11.57;;;10.10;97.50;;;;;;5006877;28;20053;-46
2022/04/22 02:01:17;;;;;;;19.45;11.13;;;10.00;97.70;;;;;;5009082;28;20441;-44
2022/04/22 02:03:43;;;;;;;22.05;11.10;;;10.00;97.80;;;;;;5010600;28;20052;-42
2022/04/22 02:06:10;;;;;;;22.05;11.82;;;9.90;98.10;;;;;;5006686;28;20100;-44
2022/04/22 02:08:37;;;;;;;19.10;10.90;;;9.90;98.20;;;;;;5010405;28;20496;-43
2022/04/22 02:11:04;;;;;;;23.75;11.05;;;9.80;98.30;;;;;;5018489;28;20050;-43
2022/04/22 02:13:36;;;;;;;25.67;11.82;;;9.80;98.60;;;;;;5002261;28;20050;-43
2022/04/22 02:16:03;;;;;;;22.92;11.18;;;9.70;98.80;;;;;;5006539;28;20092;-44
2022/04/22 02:18:30;;;;;;;21.40;11.52;;;9.70;99.10;;;;;;5002398;28;20471;-43
2022/04/22 02:20:57;;;;;;;21.25;12.27;;;9.70;99.30;;;;;;5012116;28;20723;-43
2022/04/22 02:23:24;;;;;;;22.63;11.60;;;9.60;99.50;;;;;;5006222;28;20053;-43
2022/04/22 02:25:50;;;;;;;17.92;10.93;;;9.50;99.60;;;;;;5012198;28;20482;-44
2022/04/22 02:28:35;;;;;;;24.20;11.75;;;9.50;99.60;;;;;;4996598;28;20385;-44
2022/04/22 02:31:04;;;;;;;20.17;10.90;;;9.50;99.80;;;;;;5004109;28;20053;-44
2022/04/22 02:33:31;;;;;;;25.00;12.10;;;9.50;99.80;;;;;;5008880;28;20050;-44
2022/04/22 02:35:59;;;;;;;23.25;12.02;;;9.40;99.90;;;;;;5014492;28;20050;-44
2022/04/22 02:38:27;;;;;;;22.27;11.38;;;9.40;99.90;;;;;;5013030;28;20045;-44
2022/04/22 02:46:23;;;;;;;23.48;11.93;;;9.30;99.90;;;;;;5010753;28;20038;-44
2022/04/22 02:48:50;;;;;;;28.08;12.68;;;9.20;99.90;;;;;;5010271;28;20046;-44
2022/04/22 02:51:16;;;;;;;20.67;11.98;;;9.20;99.90;;;;;;5004452;28;20394;-44
2022/04/22 02:53:43;;;;;;;19.88;11.52;;;9.20;99.90;;;;;;5005806;28;20049;-44
2022/04/22 02:56:10;;;;;;;21.42;10.48;;;9.10;99.90;;;;;;5009072;28;20042;-43
2022/04/22 02:58:37;;;;;;;23.42;11.52;;;9.10;99.90;;;;;;5009837;28;20048;-44
2022/04/22 03:01:04;;;;;;;23.80;11.70;;;9.10;99.90;;;;;;5006532;28;20129;-43
2022/04/22 03:03:32;;;;;;;23.00;10.40;;;9.00;99.90;;;;;;5003093;28;20044;-44
2022/04/22 03:05:59;;;;;;;21.70;11.23;;;9.00;99.90;;;;;;5006781;28;20042;-44
2022/04/22 03:08:26;;;;;;;20.80;10.88;;;9.00;99.90;;;;;;5008963;28;20060;-44
2022/04/22 03:10:52;;;;;;;23.65;10.95;;;9.00;99.90;;;;;;5002960;28;20687;-44
2022/04/22 03:13:19;;;;;;;22.42;10.20;;;8.90;99.90;;;;;;5009654;28;20064;-44
2022/04/22 03:15:46;;;;;;;16.90;9.38;;;8.90;99.90;;;;;;5005781;28;20039;-44
2022/04/22 03:18:12;;;;;;;18.83;9.68;;;8.90;99.90;;;;;;5003435;28;20545;-44
2022/04/22 03:20:41;;;;;;;20.75;10.23;;;8.90;99.90;;;;;;5002699;28;20065;-44
2022/04/22 03:23:07;;;;;;;19.85;9.90;;;8.90;99.90;;;;;;5007781;28;20049;-44
2022/04/22 03:25:34;;;;;;;23.08;9.50;;;8.80;99.90;;;;;;5000179;28;20054;-44
2022/04/22 03:28:01;;;;;;;18.65;9.68;;;8.80;99.90;;;;;;5009505;28;20420;-44
2022/04/22 03:30:27;;;;;;;19.75;9.38;;;8.80;99.90;;;;;;5010445;28;20054;-44
2022/04/22 03:32:54;;;;;;;18.55;9.43;;;8.70;99.90;;;;;;4996774;28;20494;-44
2022/04/22 03:35:21;;;;;;;16.85;9.00;;;8.70;99.90;;;;;;5008204;28;20046;-44
2022/04/22 03:37:49;;;;;;;16.58;8.85;;;8.70;99.90;;;;;;5005332;28;20064;-44
2022/04/22 03:40:16;;;;;;;16.95;8.88;;;8.60;99.90;;;;;;5008867;28;20054;-44
2022/04/22 03:42:42;;;;;;;16.23;8.82;;;8.60;99.90;;;;;;5007893;28;20124;-44
2022/04/22 03:45:11;;;;;;;17.45;8.80;;;8.60;99.90;;;;;;4999045;28;20357;-44
2022/04/22 03:47:38;;;;;;;16.48;8.50;;;8.60;99.90;;;;;;5003021;28;20486;-44
2022/04/22 03:50:05;;;;;;;18.48;9.27;;;8.50;99.90;;;;;;5007831;28;20046;-44
2022/04/22 03:52:32;;;;;;;16.52;8.50;;;8.50;99.90;;;;;;5009286;28;20042;-43
2022/04/22 03:55:00;;;;;;;18.70;7.35;;;8.50;99.90;;;;;;5009747;28;20451;-43
2022/04/22 04:00:12;;;;;;;14.55;7.88;;;8.40;99.90;;;;;;5005490;28;20038;-44
2022/04/22 04:02:38;;;;;;;13.00;7.07;;;8.40;99.90;;;;;;5007489;28;20502;-44
2022/04/22 04:05:06;;;;;;;14.63;7.95;;;8.40;99.90;;;;;;5007794;28;20054;-45
2022/04/22 04:07:32;;;;;;;19.48;7.70;;;8.40;99.90;;;;;;5010507;28;20069;-45
2022/04/22 04:18:13;;;;;;;12.55;7.07;;;8.40;99.90;;;;;;5002212;28;20386;-44
2022/04/22 04:23:24;;;;;;;13.55;6.43;;;8.40;99.90;;;;;;5012628;28;20092;-44
2022/04/22 04:25:52;;;;;;;11.35;6.60;;;8.40;99.90;;;;;;5013016;28;20077;-44
2022/04/22 04:28:18;;;;;;;13.15;6.45;;;8.40;99.90;;;;;;5008953;28;20385;-44
2022/04/22 04:30:46;;;;;;;17.83;6.85;;;8.40;99.90;;;;;;5011666;28;20054;-44
2022/04/22 04:33:12;;;;;;;13.98;6.95;;;8.40;99.90;;;;;;5005947;28;20042;-45
2022/04/22 04:35:40;;;;;;;11.60;6.50;;;8.40;99.90;;;;;;5005879;28;20470;-44
2022/04/22 04:38:07;;;;;;;12.45;6.00;;;8.40;99.90;;;;;;5007519;28;20050;-44
2022/04/22 04:40:34;;;;;;;15.00;5.95;;;8.30;99.90;;;;;;5009997;28;20457;-44
2022/04/22 04:43:02;;;;;;;14.95;6.10;;;8.30;99.90;;;;;;5009121;28;20068;-45
2022/04/22 04:45:29;;;;;;;16.08;6.18;;;8.30;99.90;;;;;;5017536;28;20042;-45
2022/04/22 04:47:56;;;;;;;10.75;6.25;;;8.30;99.90;;;;;;5007847;28;20549;-44
2022/04/22 04:50:23;;;;;;;12.85;6.38;;;8.30;99.90;;;;;;5014248;28;20041;-44
2022/04/22 04:52:49;;;;;;;11.50;6.55;;;8.30;99.90;;;;;;5011005;28;20462;-44
2022/04/22 04:55:19;;;;;;;9.95;6.07;;;8.20;99.90;;;;;;5015615;28;20053;-43
2022/04/22 04:57:45;;;;;;;17.13;6.50;;;8.20;99.90;;;;;;5014123;28;20056;-45
2022/04/22 05:00:14;;;;;;;9.32;5.95;;;8.20;99.90;;;;;;5012464;28;20414;-44
2022/04/22 05:02:41;;;;;;;13.98;6.50;;;8.20;99.90;;;;;;5010732;28;20045;-44
2022/04/22 05:05:09;;;;;;;10.50;6.18;;;8.20;99.90;;;;;;5001982;28;20371;-44
2022/04/22 05:07:45;;;;;;;13.13;5.90;;;8.10;99.90;;;;;;5008156;28;20085;-44
2022/04/22 05:10:12;;;;;;;11.32;5.90;;;8.10;99.90;;;;;;5005392;28;20048;-44
2022/04/22 05:12:39;;;;;;;12.98;6.18;;;8.10;99.90;;;;;;5008030;28;20474;-43
2022/04/22 05:15:08;;;;;;;11.32;5.95;;;8.20;99.90;;;;;;5008588;28;20386;-44
2022/04/22 05:17:36;;;;;;;13.80;6.30;;;8.10;99.90;;;;;;5012063;28;20438;-45
2022/04/22 05:20:03;;;;;;;14.60;6.03;;;8.10;99.90;;;;;;5010328;28;20048;-44
2022/04/22 05:22:29;;;;;;;10.38;5.47;;;8.20;99.90;;;;;;5012112;28;20088;-45
2022/04/22 05:24:56;;;;;;;11.57;5.93;;;8.20;99.90;;;;;;5012982;28;20050;-44
2022/04/22 05:27:23;;;;;;;10.10;5.38;;;8.20;99.90;;;;;;5007855;28;20057;-44
2022/04/22 05:32:38;;;;;;;10.18;5.60;;;8.20;99.90;;;;;;5007743;28;20046;-44
2022/04/22 05:35:05;;;;;;;10.52;5.60;;;8.20;99.90;;;;;;5009769;28;20081;-44
2022/04/22 05:37:43;;;;;;;11.02;6.00;;;8.20;99.90;;;;;;5013020;28;20048;-44
2022/04/22 05:40:11;;;;;;;11.00;5.88;;;8.30;99.90;;;;;;5012817;28;20053;-45
2022/04/22 05:42:38;;;;;;;13.05;5.70;;;8.30;99.90;;;;;;5005063;28;20057;-44
2022/04/22 05:45:06;;;;;;;9.98;5.47;;;8.40;99.90;;;;;;5010745;28;20042;-43
2022/04/22 05:47:33;;;;;;;11.43;5.38;;;8.40;99.90;;;;;;5001169;28;20066;-43
2022/04/22 05:50:01;;;;;;;16.70;6.63;;;8.50;99.90;;;;;;5005852;28;20577;-44
2022/04/22 05:52:27;;;;;;;8.85;5.10;;;8.60;99.90;;;;;;5004565;28;20057;-44
2022/04/22 05:54:54;;;;;;;8.95;5.25;;;8.60;99.70;;;;;;5012461;28;20038;-43
2022/04/22 05:57:21;;;;;;;9.57;5.57;;;8.70;99.60;;;;;;5010107;28;20042;-44
2022/04/22 05:59:48;;;;;;;7.30;4.85;;;8.80;99.40;;;;;;5012827;28;20044;-43
2022/04/22 06:02:15;;;;;;;10.30;5.55;;;8.90;99.50;;;;;;5009115;28;20049;-45
2022/04/22 06:04:41;;;;;;;10.32;5.57;;;9.00;99.00;;;;;;5011177;28;20122;-43
2022/04/22 06:07:09;;;;;;;11.70;4.88;;;9.00;98.80;;;;;;5003288;28;20038;-44
2022/04/22 06:12:23;;;;;;;10.02;5.18;;;9.20;98.30;;;;;;5000393;28;20530;-43
2022/04/22 06:14:50;;;;;;;8.95;4.90;;;9.20;98.10;;;;;;5008709;28;20042;-44
2022/04/22 06:17:16;;;;;;;9.65;5.03;;;9.40;98.00;;;;;;5008447;28;20050;-43
2022/04/22 06:19:43;;;;;;;11.55;5.45;;;9.50;97.80;;;;;;5013265;28;20049;-44
2022/04/22 06:22:11;;;;;;;7.65;4.72;;;9.50;97.60;;;;;;5007414;28;20042;-43
2022/04/22 06:24:38;;;;;;;13.38;4.82;;;9.60;97.40;;;;;;5010751;28;20050;-44
2022/04/22 06:27:05;;;;;;;10.88;4.97;;;9.70;97.30;;;;;;5002893;28;20474;-43
2022/04/22 06:29:32;;;;;;;11.05;5.05;;;9.80;97.30;;;;;;5017148;28;20045;-43
2022/04/22 06:31:59;;;;;;;8.57;5.13;;;9.80;97.10;;;;;;5010875;28;20049;-44
2022/04/22 06:34:27;;;;;;;8.73;5.15;;;9.90;97.00;;;;;;5012305;28;20289;-44
2022/04/22 06:36:54;;;;;;;12.43;5.47;;;10.00;96.50;;;;;;5011663;28;20038;-44
2022/04/22 06:39:22;;;;;;;7.60;5.22;;;10.00;96.30;;;;;;5010850;28;20053;-43
2022/04/22 06:47:19;;;;;;;10.18;5.57;;;10.30;96.20;;;;;;5006294;28;20359;-43
2022/04/22 06:49:46;;;;;;;11.63;4.95;;;10.50;95.90;;;;;;5008790;28;20053;-44
2022/04/22 06:52:14;;;;;;;7.20;4.45;;;10.50;95.50;;;;;;5009438;28;20064;-44
2022/04/22 06:54:43;;;;;;;15.63;5.32;;;10.60;95.40;;;;;;5000621;28;20097;-43
2022/04/22 06:57:11;;;;;;;11.35;5.05;;;10.70;95.20;;;;;;5006312;28;20042;-44
2022/04/22 06:59:38;;;;;;;9.13;4.80;;;10.90;95.10;;;;;;4999875;28;20058;-45
2022/04/22 07:02:05;;;;;;;7.15;4.70;;;11.00;94.80;;;;;;4998139;28;20085;-45
2022/04/22 07:04:33;;;;;;;8.00;4.45;;;11.10;94.60;;;;;;5003339;28;20050;-44
2022/04/22 07:07:00;;;;;;;8.82;4.47;;;11.20;94.00;;;;;;5000240;28;20049;-45
2022/04/22 07:09:27;;;;;;;7.43;4.40;;;11.20;93.70;;;;;;5014334;28;20562;-43
2022/04/22 07:11:55;;;;;;;7.40;4.63;;;11.30;93.50;;;;;;5009865;28;20042;-45
2022/04/22 07:14:22;;;;;;;7.68;4.43;;;11.40;93.30;;;;;;4997602;28;20044;-44
2022/04/22 07:16:49;;;;;;;7.18;4.15;;;11.40;93.20;;;;;;5010923;28;20378;-45
2022/04/22 07:19:16;;;;;;;8.45;4.55;;;11.50;93.10;;;;;;5005733;28;20078;-45
2022/04/22 07:21:43;;;;;;;8.90;4.30;;;11.60;93.10;;;;;;5010952;28;20455;-44
2022/04/22 07:24:11;;;;;;;8.00;4.70;;;11.70;93.00;;;;;;5010899;28;20405;-44
2022/04/22 07:26:37;;;;;;;7.38;4.43;;;11.90;92.60;;;;;;5001605;28;20050;-45
2022/04/22 07:29:05;;;;;;;7.75;4.45;;;12.00;92.30;;;;;;4999772;28;20049;-44
2022/04/22 07:31:33;;;;;;;7.45;4.60;;;12.10;92.10;;;;;;5006489;28;20053;-44
2022/04/22 07:34:00;;;;;;;7.32;4.22;;;12.10;91.80;;;;;;5007633;28;20136;-45
2022/04/22 07:36:28;;;;;;;9.10;4.05;;;12.10;91.90;;;;;;5004078;28;20053;-45
2022/04/22 07:38:55;;;;;;;9.10;4.10;;;12.20;91.60;;;;;;5010669;28;20046;-45
2022/04/22 07:41:23;;;;;;;6.50;3.90;;;12.30;91.20;;;;;;5003745;28;20047;-45
2022/04/22 07:46:49;;;;;;;14.00;3.97;;;12.50;91.20;;;;;;5007679;28;20394;-44
2022/04/22 07:49:16;;;;;;;8.25;3.80;;;12.80;91.10;;;;;;5008188;28;20054;-44
2022/04/22 07:51:43;;;;;;;6.95;3.58;;;12.90;90.60;;;;;;5010077;28;20046;-44
2022/04/22 07:54:12;;;;;;;7.53;3.88;;;13.00;90.50;;;;;;5010521;28;20045;-45
2022/04/22 07:56:41;;;;;;;6.22;3.67;;;13.20;90.00;;;;;;4993243;28;20336;-45
2022/04/22 07:59:08;;;;;;;6.78;3.42;;;13.20;90.00;;;;;;4998308;28;20125;-45
2022/04/22 08:01:35;;;;;;;6.05;3.00;;;13.40;89.00;;;;;;5006510;28;20389;-44
2022/04/22 08:04:03;;;;;;;11.15;3.80;;;13.40;88.30;;;;;;4992692;28;20057;-44
2022/04/22 08:06:30;;;;;;;7.53;3.28;;;13.50;87.90;;;;;;5004540;28;20152;-44
2022/04/22 08:08:57;;;;;;;6.43;3.35;;;13.60;86.90;;;;;;5008898;28;20046;-45
2022/04/22 08:11:23;;;;;;;4.60;2.97;;;13.60;86.00;;;;;;5000312;28;20129;-45
2022/04/22 08:13:50;;;;;;;9.63;3.65;;;13.60;85.70;;;;;;5010253;28;20049;-44
2022/04/22 08:16:17;;;;;;;8.00;3.10;;;13.70;85.20;;;;;;5006686;28;20402;-44
2022/04/22 08:18:44;;;;;;;6.72;3.05;;;13.80;85.70;;;;;;5005637;28;20137;-44
2022/04/22 08:21:12;;;;;;;7.97;2.60;;;13.90;84.80;;;;;;5002847;28;20050;-44
2022/04/22 08:23:39;;;;;;;6.35;2.88;;;14.00;83.80;;;;;;5003603;28;20049;-45
2022/04/22 08:26:07;;;;;;;10.30;2.78;;;14.20;83.90;;;;;;5019598;28;20046;-45
2022/04/22 08:28:33;;;;;;;7.65;2.47;;;14.40;83.20;;;;;;5007103;28;20056;-45
2022/04/22 08:31:00;;;;;;;4.40;2.45;;;14.50;82.40;;;;;;5008399;28;20532;-45
2022/04/22 08:33:27;;;;;;;4.18;2.20;;;14.60;81.10;;;;;;5007637;28;20454;-45
2022/04/22 08:35:54;;;;;;;7.13;2.58;;;14.70;79.70;;;;;;5002517;28;20505;-44
2022/04/22 08:38:22;;;;;;;5.28;2.40;;;14.80;79.20;;;;;;5003741;28;20052;-43
2022/04/22 08:40:49;;;;;;;7.18;2.75;;;14.80;78.40;;;;;;5009503;28;20100;-44
2022/04/22 08:43:16;;;;;;;5.07;2.63;;;14.80;78.40;;;;;;5008636;28;20042;-44
2022/04/22 08:45:42;;;;;;;4.25;2.40;;;14.90;77.90;;;;;;5007363;28;20077;-44
2022/04/22 08:50:54;;;;;;;5.88;2.58;;;15.10;76.00;;;;;;5004069;28;20128;-44
2022/04/22 08:53:26;;;;;;;6.95;2.72;;;15.20;76.00;;;;;;5012353;28;20050;-45
2022/04/22 08:55:56;;;;;;;8.95;2.67;;;15.30;76.80;;;;;;5003370;28;20490;-44
2022/04/22 08:58:24;;;;;;;8.48;2.45;;;15.40;77.10;;;;;;5007015;28;20599;-44
2022/04/22 09:00:51;;;;;;;8.20;2.45;;;15.60;76.20;;;;;;5005454;28;20046;-44
2022/04/22 09:03:18;;;;;;;6.65;2.63;;;15.50;75.30;;;;;;5005696;28;20054;-44
2022/04/22 09:05:45;;;;;;;6.50;2.88;;;15.60;75.00;;;;;;4998968;28;20050;-44
2022/04/22 09:08:11;;;;;;;10.48;3.03;;;15.50;75.40;;;;;;5002607;28;20089;-44
2022/04/22 09:10:40;;;;;;;12.88;3.28;;;15.60;74.50;;;;;;5008810;28;20721;-44
2022/04/22 09:13:09;;;;;;;5.93;2.72;;;15.70;74.40;;;;;;5007415;28;20092;-44
2022/04/22 09:15:36;;;;;;;6.10;2.60;;;15.90;74.30;;;;;;5011617;28;20405;-44
2022/04/22 09:18:09;;;;;;;8.73;2.80;;;16.00;73.30;;;;;;5001396;28;20049;-44
2022/04/22 09:20:36;;;;;;;6.53;2.60;;;16.10;71.70;;;;;;5007840;28;20404;-44
2022/04/22 09:23:05;;;;;;;6.72;2.55;;;16.20;71.50;;;;;;4997838;28;20057;-44
2022/04/22 09:25:32;;;;;;;8.35;2.58;;;16.20;71.00;;;;;;4998838;28;20046;-44
2022/04/22 09:28:10;;;;;;;5.05;2.40;;;16.30;70.80;;;;;;4996012;28;20074;-44
2022/04/22 09:30:36;;;;;;;9.90;2.70;;;16.40;68.50;;;;;;5003019;28;20548;-45
2022/04/22 09:33:03;;;;;;;4.00;2.35;;;16.50;70.50;;;;;;4996487;28;20125;-45
2022/04/22 09:42:38;;;;;;;7.10;2.90;;;16.50;69.30;;;;;;5007738;28;20064;-45
2022/04/22 09:43:52;;;;;;;5.38;2.60;;;16.80;68.00;;;;;;5007360;28;20069;-45
2022/04/22 09:46:22;;;;;;;6.57;2.65;;;16.80;67.40;;;;;;5018527;28;20047;-45
2022/04/22 09:48:49;;;;;;;6.18;2.63;;;16.90;66.70;;;;;;5005676;28;20537;-45
2022/04/22 09:51:24;;;;;;;5.15;2.70;;;16.90;66.20;;;;;;4995015;28;20129;-45
2022/04/22 09:54:00;;;;;;;4.95;2.38;;;17.00;66.70;;;;;;5005715;28;20038;-45
2022/04/22 09:56:26;;;;;;;5.45;2.42;;;17.20;65.30;;;;;;5011947;28;20076;-43
2022/04/22 09:58:55;;;;;;;5.50;2.20;;;17.30;65.60;;;;;;5009557;28;20542;-44
2022/04/22 10:01:22;;;;;;;6.18;2.70;;;17.30;64.10;;;;;;5008120;28;20087;-44
2022/04/22 10:03:49;;;;;;;6.82;2.50;;;17.40;64.20;;;;;;5012948;28;20111;-45
2022/04/22 10:06:16;;;;;;;9.55;3.03;;;17.60;63.90;;;;;;4998558;28;20076;-45
2022/04/22 10:08:43;;;;;;;5.65;2.60;;;17.70;62.90;;;;;;5001070;28;20044;-45
2022/04/22 10:11:10;;;;;;;5.88;3.00;;;17.80;63.90;;;;;;5009747;28;20041;-44
2022/04/22 10:13:41;;;;;;;7.03;2.88;;;17.90;62.80;;;;;;5002128;28;20052;-45
2022/04/22 10:16:10;;;;;;;13.05;3.17;;;17.90;62.30;;;;;;5003053;28;20077;-44
2022/04/22 10:18:37;;;;;;;4.85;2.30;;;17.90;62.10;;;;;;5010482;28;20081;-45
2022/04/22 10:21:04;;;;;;;4.80;2.50;;;18.00;62.70;;;;;;5000626;28;20497;-44
2022/04/22 10:23:31;;;;;;;6.22;2.60;;;18.10;61.90;;;;;;5014218;28;20136;-44
2022/04/22 10:25:58;;;;;;;4.43;2.70;;;18.20;61.60;;;;;;5012110;28;20383;-45
2022/04/22 10:28:25;;;;;;;5.88;2.60;;;18.40;61.40;;;;;;5011345;28;20050;-45
2022/04/22 10:30:54;;;;;;;9.32;2.60;;;18.40;60.50;;;;;;5009960;28;20045;-45
2022/04/22 10:36:18;;;;;;;3.85;2.33;;;18.70;59.90;;;;;;5008383;28;20041;-45
2022/04/22 10:38:46;;;;;;;4.75;2.30;;;18.90;58.90;;;;;;5012556;28;20046;-45
2022/04/22 10:41:17;;;;;;;6.78;2.88;;;18.90;58.40;;;;;;5011822;28;20048;-44
2022/04/22 10:43:44;;;;;;;3.97;2.50;;;19.10;58.40;;;;;;5005830;28;20046;-44
2022/04/22 10:49:15;;;;;;;8.80;2.97;;;19.30;58.30;;;;;;5007900;28;20046;-46
2022/04/22 10:52:02;;;;;;;9.57;2.80;;;19.40;57.10;;;;;;5010331;28;20454;-45
2022/04/22 10:55:07;;;;;;;9.23;2.47;;;19.50;56.70;;;;;;5009980;28;20053;-45
2022/04/22 10:57:34;;;;;;;6.57;2.35;;;19.60;56.00;;;;;;5010680;28;20042;-45
2022/04/22 11:00:05;;;;;;;3.92;2.40;;;19.60;57.50;;;;;;5013368;28;20046;-46
2022/04/22 11:02:34;;;;;;;4.75;2.75;;;19.60;57.00;;;;;;5008879;28;20525;-45
2022/04/22 11:05:37;;;;;;;5.72;2.80;;;19.60;56.80;;;;;;5012348;28;20042;-46
2022/04/22 11:08:06;;;;;;;5.63;2.88;;;19.70;56.80;;;;;;5005085;28;20042;-45
2022/04/22 11:11:03;;;;;;;9.20;3.50;;;19.80;57.60;;;;;;5013108;28;20133;-46
2022/04/22 11:13:31;;;;;;;8.50;3.70;;;20.10;57.30;;;;;;5001209;28;20058;-45
2022/04/22 11:15:58;;;;;;;7.07;2.90;;;20.20;56.60;;;;;;5001529;28;20104;-45
2022/04/22 11:18:25;;;;;;;6.63;3.33;;;20.10;56.20;;;;;;5003077;28;20129;-44
2022/04/22 11:20:59;;;;;;;9.38;3.58;;;20.10;56.20;;;;;;5011932;28;20053;-45
2022/04/22 11:23:25;;;;;;;7.65;3.33;;;20.00;56.20;;;;;;5013031;28;20450;-45
2022/04/22 11:25:52;;;;;;;8.95;3.25;;;20.00;55.90;;;;;;5009981;28;20045;-45
2022/04/22 11:28:19;;;;;;;8.43;3.47;;;20.00;56.30;;;;;;4999940;28;20054;-45
2022/04/22 11:30:45;;;;;;;11.63;3.40;;;20.10;55.80;;;;;;4996702;28;20446;-45
2022/04/22 11:33:13;;;;;;;8.00;3.65;;;20.00;56.80;;;;;;5006696;28;20089;-45
2022/04/22 11:35:40;;;;;;;3.97;3.17;;;20.30;57.00;;;;;;5007560;28;20060;-45
2022/04/22 11:38:08;;;;;;;7.60;3.60;;;20.50;55.50;;;;;;5010161;28;20117;-45
2022/04/22 11:40:37;;;;;;;5.35;3.30;;;20.50;55.00;;;;;;5007115;28;20054;-45
2022/04/22 11:43:08;;;;;;;8.25;3.22;;;20.70;54.70;;;;;;5010623;28;20045;-46
2022/04/22 11:45:36;;;;;;;7.85;3.10;;;20.80;54.90;;;;;;4995017;28;20054;-46
2022/04/22 11:48:07;;;;;;;10.88;3.58;;;20.90;55.00;;;;;;5008386;28;20144;-45
2022/04/22 11:50:38;;;;;;;5.72;3.42;;;21.10;54.80;;;;;;5007340;28;20505;-46
2022/04/22 11:53:13;;;;;;;7.75;2.95;;;21.20;54.20;;;;;;5009207;28;20367;-46
2022/04/22 11:55:41;;;;;;;7.70;3.38;;;21.20;54.00;;;;;;5006574;28;20052;-46
2022/04/22 11:58:09;;;;;;;17.13;4.45;;;21.10;53.20;;;;;;5004572;28;20068;-45
2022/04/22 12:06:06;;;;;;;11.20;3.75;;;21.00;53.40;;;;;;5008121;28;20187;-46
2022/04/22 12:08:35;;;;;;;8.27;4.32;;;21.10;53.60;;;;;;5011612;28;20467;-45
2022/04/22 12:11:02;;;;;;;12.65;3.58;;;21.30;52.90;;;;;;5011537;28;20450;-45
2022/04/22 12:13:29;;;;;;;9.27;3.67;;;21.40;53.30;;;;;;5010865;28;20074;-45
2022/04/22 12:15:55;;;;;;;7.25;3.42;;;21.40;51.80;;;;;;5010986;28;20363;-45
2022/04/22 12:18:27;;;;;;;9.50;3.58;;;21.50;52.00;;;;;;5011607;28;20478;-45
2022/04/22 12:20:54;;;;;;;7.30;3.13;;;21.50;51.70;;;;;;5016471;28;20049;-45
2022/04/22 12:23:21;;;;;;;8.90;3.70;;;21.40;51.80;;;;;;5008207;28;20121;-45
2022/04/22 12:25:55;;;;;;;11.77;3.55;;;21.60;51.70;;;;;;5007365;28;20474;-46
2022/04/22 12:28:23;;;;;;;8.73;4.05;;;21.50;50.20;;;;;;5011830;28;20052;-47
2022/04/22 12:30:49;;;;;;;7.80;3.88;;;21.30;51.10;;;;;;5007572;28;20745;-45
2022/04/22 12:33:19;;;;;;;6.97;3.80;;;21.20;52.00;;;;;;4996785;28;20054;-46
2022/04/22 12:35:48;;;;;;;6.90;4.28;;;21.30;51.60;;;;;;5000248;28;20451;-45
2022/04/22 12:38:14;;;;;;;7.25;3.95;;;21.40;51.00;;;;;;5002360;28;20545;-43
2022/04/22 12:40:48;;;;;;;8.32;3.67;;;21.40;51.00;;;;;;4998152;28;20046;-44
2022/04/22 12:43:25;;;;;;;7.95;3.70;;;21.40;51.10;;;;;;5009694;28;20113;-45
2022/04/22 12:54:13;;;;;;;9.98;4.15;;;20.70;52.40;;;;;;5008782;28;20478;-44
2022/04/22 12:56:39;;;;;;;7.80;4.50;;;20.70;52.60;;;;;;5005393;28;20584;-44
2022/04/22 12:59:07;;;;;;;11.88;5.10;;;20.70;52.50;;;;;;5009670;28;20056;-45
2022/04/22 13:01:36;;;;;;;7.82;4.88;;;20.50;52.70;;;;;;5007462;28;20054;-44
2022/04/22 13:04:03;;;;;;;11.30;5.72;;;20.60;53.00;;;;;;5017079;28;20053;-45
2022/04/22 13:06:40;;;;;;;9.90;5.60;;;20.70;53.40;;;;;;5014019;28;20056;-44
2022/04/22 13:09:07;;;;;;;9.05;5.20;;;20.80;51.90;;;;;;5005873;28;20048;-45
2022/04/22 13:11:34;;;;;;;12.90;5.22;;;20.90;53.10;;;;;;5014223;28;20129;-44
2022/04/22 13:14:01;;;;;;;7.88;5.20;;;20.90;52.70;;;;;;5017269;28;20081;-45
2022/04/22 13:16:29;;;;;;;7.82;4.88;;;21.10;52.80;;;;;;5015254;28;20042;-45
2022/04/22 13:18:56;;;;;;;6.68;5.32;;;21.30;53.30;;;;;;5010018;28;20053;-44
2022/04/22 13:21:23;;;;;;;8.77;5.72;;;21.60;52.20;;;;;;5008510;28;20549;-44
2022/04/22 13:23:50;;;;;;;9.02;5.40;;;21.60;51.60;;;;;;5013905;28;20054;-45
2022/04/22 13:26:17;;;;;;;15.23;6.07;;;21.40;51.80;;;;;;4998130;28;20049;-44
2022/04/22 13:28:43;;;;;;;11.65;5.75;;;21.30;51.90;;;;;;5015546;28;20049;-44
2022/04/22 13:31:10;;;;;;;14.43;6.00;;;21.10;52.50;;;;;;5008879;28;20041;-45
2022/04/22 13:33:38;;;;;;;10.52;5.75;;;21.00;52.20;;;;;;5011243;28;20125;-44
2022/04/22 13:36:07;;;;;;;12.73;5.70;;;21.00;52.70;;;;;;5014026;28;20048;-44
2022/04/22 13:38:35;;;;;;;15.05;5.60;;;21.00;53.20;;;;;;5011638;28;20406;-45
2022/04/22 13:41:01;;;;;;;15.30;6.10;;;21.10;53.80;;;;;;5014657;28;20073;-45
2022/04/22 13:43:30;;;;;;;13.73;6.15;;;21.30;52.80;;;;;;5013350;28;20050;-45
2022/04/22 13:54:19;;;;;;;9.65;5.90;;;20.70;53.30;;;;;;4970840;28;20041;-45
2022/04/22 13:56:46;;;;;;;10.27;6.70;;;20.90;53.30;;;;;;5016596;28;20133;-44
2022/04/22 13:59:13;;;;;;;13.35;6.15;;;21.00;53.40;;;;;;5008327;28;20062;-44
2022/04/22 14:01:39;;;;;;;9.52;6.03;;;20.90;53.20;;;;;;5010223;28;20060;-45